Time;durP1;ratioP1;P1;durP2;ratioP2;P2;SDS_P1;SDS_P2;PMS_P1;PMS_P2;Temp;Humidity;BMP_temperature;BMP_pressure;BME280_temperature;BME280_humidity;BME280_pressure;Samples;Min_cycle;Max_cycle;Signal;HPM_P1;HPM_P2
2023/12/24 00:01:15;;;;;;;6.28;4.75;;;;;;;0.56;100.00;99263.63;1461072;89;21703;-74
2023/12/24 00:03:42;;;;;;;4.67;3.03;;;;;;;0.59;100.00;99267.30;1448552;89;21529;-74
2023/12/24 00:06:09;;;;;;;4.97;3.50;;;;;;;0.56;100.00;99262.32;1450731;89;21499;-74
2023/12/24 00:08:37;;;;;;;4.70;3.37;;;;;;;0.56;100.00;99270.13;1457389;89;21715;-74
2023/12/24 00:11:05;;;;;;;5.83;3.43;;;;;;;0.57;100.00;99260.89;1455363;89;22636;-74
2023/12/24 00:13:33;;;;;;;7.10;4.23;;;;;;;0.59;100.00;99264.70;1447977;89;21554;-74
2023/12/24 00:16:01;;;;;;;5.43;4.07;;;;;;;0.60;100.00;99281.97;1457589;89;22515;-74
2023/12/24 00:18:28;;;;;;;6.77;3.73;;;;;;;0.59;100.00;99278.55;1457604;89;21668;-74
2023/12/24 00:20:57;;;;;;;6.03;4.00;;;;;;;0.61;100.00;99283.66;1457556;89;21748;-73
2023/12/24 00:23:24;;;;;;;6.47;4.77;;;;;;;0.62;100.00;99284.00;1452624;89;21814;-74
2023/12/24 00:25:52;;;;;;;8.03;4.03;;;;;;;0.65;100.00;99288.98;1455311;89;22573;-73
2023/12/24 00:28:19;;;;;;;6.83;4.30;;;;;;;0.65;100.00;99288.50;1463563;89;21660;-73
2023/12/24 00:30:48;;;;;;;5.77;3.77;;;;;;;0.66;100.00;99298.00;1461037;89;21595;-73
2023/12/24 00:33:15;;;;;;;7.93;4.07;;;;;;;0.71;100.00;99308.06;1454412;89;22422;-74
2023/12/24 00:35:42;;;;;;;7.80;4.90;;;;;;;0.75;100.00;99302.15;1460878;89;21641;-73
2023/12/24 00:38:10;;;;;;;8.40;4.37;;;;;;;0.77;100.00;99314.12;1452513;89;21516;-73
2023/12/24 00:40:37;;;;;;;7.23;3.70;;;;;;;0.81;100.00;99301.25;1454511;89;22571;-74
2023/12/24 00:43:04;;;;;;;5.80;3.57;;;;;;;0.82;100.00;99320.30;1454449;89;21659;-73
2023/12/24 00:45:31;;;;;;;7.00;4.30;;;;;;;0.82;100.00;99325.04;1450581;89;21807;-73
2023/12/24 00:47:58;;;;;;;6.17;3.77;;;;;;;0.82;100.00;99332.85;1461012;89;21692;-75
2023/12/24 00:50:26;;;;;;;4.27;2.90;;;;;;;0.82;100.00;99334.16;1454497;89;22505;-75
2023/12/24 00:52:53;;;;;;;4.33;3.00;;;;;;;0.80;100.00;99334.73;1459972;89;21837;-74
2023/12/24 00:55:21;;;;;;;4.13;2.53;;;;;;;0.78;100.00;99334.51;1460057;89;22586;-73
2023/12/24 00:57:48;;;;;;;8.40;3.53;;;;;;;0.79;100.00;99326.56;1450715;89;21607;-73
2023/12/24 01:00:15;;;;;;;6.60;3.23;;;;;;;0.79;100.00;99325.27;1454188;89;21656;-73
2023/12/24 01:02:42;;;;;;;5.37;3.30;;;;;;;0.78;100.00;99326.70;1465301;89;21843;-73
2023/12/24 01:05:09;;;;;;;4.47;2.87;;;;;;;0.78;100.00;99341.02;1457665;89;21801;-73
2023/12/24 01:07:37;;;;;;;7.23;3.70;;;;;;;0.74;100.00;99328.67;1444102;89;21676;-73
2023/12/24 01:10:05;;;;;;;7.03;3.33;;;;;;;0.73;100.00;99334.83;1454865;89;21589;-74
2023/12/24 01:12:32;;;;;;;5.70;3.37;;;;;;;0.75;100.00;99335.56;1453325;89;21597;-73
2023/12/24 01:15:00;;;;;;;5.47;2.70;;;;;;;0.74;100.00;99344.77;1446849;89;21716;-73
2023/12/24 01:17:27;;;;;;;5.50;3.13;;;;;;;0.75;100.00;99349.89;1455709;89;22498;-73
2023/12/24 01:19:57;;;;;;;6.20;3.37;;;;;;;0.75;100.00;99334.26;1458303;89;22071;-73
2023/12/24 01:22:25;;;;;;;5.12;3.00;;;;;;;0.74;100.00;99341.69;1459497;89;22638;-74
2023/12/24 01:24:52;;;;;;;5.27;3.23;;;;;;;0.77;100.00;99344.55;1464167;89;21318;-73
2023/12/24 01:27:19;;;;;;;4.63;2.73;;;;;;;0.76;100.00;99333.30;1450933;89;22662;-73
2023/12/24 01:29:46;;;;;;;3.80;2.73;;;;;;;0.72;100.00;99359.23;1462342;89;21694;-74
2023/12/24 01:32:14;;;;;;;4.87;3.73;;;;;;;0.77;100.00;99354.97;1455632;89;21587;-73
2023/12/24 01:34:41;;;;;;;4.67;3.17;;;;;;;0.78;100.00;99335.81;1462698;89;21710;-73
2023/12/24 01:37:08;;;;;;;3.73;2.70;;;;;;;0.77;100.00;99349.28;1461910;89;21766;-73
2023/12/24 01:39:36;;;;;;;4.77;3.57;;;;;;;0.76;100.00;99350.71;1454042;89;22890;-73
2023/12/24 01:42:04;;;;;;;3.77;3.03;;;;;;;0.75;100.00;99356.84;1459964;89;21865;-73
2023/12/24 01:44:31;;;;;;;6.23;3.97;;;;;;;0.72;100.00;99370.09;1459605;89;21649;-74
2023/12/24 01:46:58;;;;;;;6.60;3.10;;;;;;;0.75;100.00;99362.05;1457950;89;21524;-73
2023/12/24 01:49:26;;;;;;;6.87;3.97;;;;;;;0.77;100.00;99359.70;1436794;89;21649;-74
2023/12/24 01:51:54;;;;;;;8.53;5.17;;;;;;;0.77;100.00;99354.48;1451930;89;21587;-74
2023/12/24 01:54:22;;;;;;;6.73;4.53;;;;;;;0.79;100.00;99357.83;1452248;89;22455;-73
2023/12/24 01:56:49;;;;;;;5.20;4.30;;;;;;;0.82;100.00;99356.30;1456049;89;21758;-73
2023/12/24 01:59:18;;;;;;;6.50;4.30;;;;;;;0.83;100.00;99370.97;1455161;89;21648;-74
2023/12/24 02:01:46;;;;;;;7.87;5.47;;;;;;;0.80;100.00;99373.80;1454244;89;23127;-73
2023/12/24 02:04:15;;;;;;;9.87;5.57;;;;;;;0.80;100.00;99381.61;1451914;89;21811;-73
2023/12/24 02:06:42;;;;;;;7.70;4.37;;;;;;;0.81;100.00;99388.51;1434240;89;21699;-73
2023/12/24 02:09:09;;;;;;;7.13;5.20;;;;;;;0.82;100.00;99390.16;1458441;89;21699;-73
2023/12/24 02:11:37;;;;;;;9.23;5.27;;;;;;;0.82;100.00;99390.16;1455696;89;21591;-74
2023/12/24 02:14:04;;;;;;;6.13;4.47;;;;;;;0.82;100.00;99391.94;1453634;89;22278;-73
2023/12/24 02:16:36;;;;;;;7.70;4.60;;;;;;;0.80;100.00;99389.91;1455505;89;21882;-73
2023/12/24 02:19:06;;;;;;;7.20;4.93;;;;;;;0.78;100.00;99399.16;1458373;89;22631;-73
2023/12/24 02:21:33;;;;;;;8.37;5.63;;;;;;;0.77;100.00;99400.07;1459264;89;21775;-73
2023/12/24 02:24:01;;;;;;;7.27;4.97;;;;;;;0.78;100.00;99404.84;1462676;89;21679;-73
2023/12/24 02:27:01;;;;;;;6.13;5.33;;;;;;;0.78;100.00;99403.53;1459670;89;21705;-73
2023/12/24 02:29:36;;;;;;;9.77;5.47;;;;;;;0.79;100.00;99404.70;1453402;89;21703;-73
2023/12/24 02:32:11;;;;;;;7.13;5.27;;;;;;;0.78;100.00;99406.14;1459592;89;21605;-73
2023/12/24 02:34:40;;;;;;;7.50;5.60;;;;;;;0.77;100.00;99398.77;1449770;89;22576;-74
2023/12/24 02:37:08;;;;;;;10.10;5.70;;;;;;;0.78;100.00;99403.06;1454903;89;21586;-73
2023/12/24 02:39:41;;;;;;;6.00;4.47;;;;;;;0.79;100.00;99406.48;1458780;89;21763;-73
2023/12/24 02:42:09;;;;;;;6.20;4.43;;;;;;;0.76;100.00;99403.62;1454831;89;21698;-73
2023/12/24 02:44:37;;;;;;;5.80;4.10;;;;;;;0.76;100.00;99421.86;1451760;89;21687;-73
2023/12/24 02:47:05;;;;;;;7.60;4.37;;;;;;;0.77;100.00;99427.42;1461981;89;21600;-73
2023/12/24 02:49:32;;;;;;;6.33;4.43;;;;;;;0.77;100.00;99427.42;1465037;89;21767;-73
2023/12/24 02:51:59;;;;;;;6.53;4.63;;;;;;;0.75;100.00;99425.42;1451555;89;22643;-74
2023/12/24 02:54:26;;;;;;;8.73;6.03;;;;;;;0.79;100.00;99428.63;1452449;89;21606;-73
2023/12/24 02:56:53;;;;;;;7.33;5.20;;;;;;;0.78;100.00;99426.50;1447019;89;21679;-73
2023/12/24 02:59:25;;;;;;;8.07;6.23;;;;;;;0.80;100.00;99422.47;1444509;89;21634;-73
2023/12/24 03:01:51;;;;;;;8.93;5.87;;;;;;;0.81;100.00;99432.79;1456485;89;21706;-74
2023/12/24 03:04:18;;;;;;;7.43;5.43;;;;;;;0.81;100.00;99436.70;1454538;89;22309;-73
2023/12/24 03:06:45;;;;;;;6.87;5.17;;;;;;;0.79;100.00;99439.88;1464829;89;21640;-73
2023/12/24 03:09:12;;;;;;;5.80;4.23;;;;;;;0.81;100.00;99442.38;1450712;89;21551;-73
2023/12/24 03:11:39;;;;;;;7.63;5.10;;;;;;;0.80;100.00;99430.28;1449612;89;21628;-73
2023/12/24 03:14:06;;;;;;;6.60;4.40;;;;;;;0.83;100.00;99428.28;1456955;89;21701;-73
2023/12/24 03:16:34;;;;;;;6.50;4.93;;;;;;;0.82;100.00;99437.05;1447001;89;22750;-74
2023/12/24 03:19:01;;;;;;;6.23;5.07;;;;;;;0.85;100.00;99439.43;1449778;89;21614;-73
2023/12/24 03:21:28;;;;;;;5.13;4.30;;;;;;;0.85;100.00;99443.81;1461645;89;21780;-73
2023/12/24 03:23:55;;;;;;;6.67;4.97;;;;;;;0.83;100.00;99443.91;1459362;89;21539;-73
2023/12/24 03:26:24;;;;;;;22.60;7.97;;;;;;;0.83;100.00;99445.21;1455955;89;21613;-73
2023/12/24 03:28:51;;;;;;;35.57;12.30;;;;;;;0.85;100.00;99439.43;1466492;89;22425;-73
2023/12/24 03:31:18;;;;;;;23.77;9.60;;;;;;;0.86;100.00;99460.66;1456088;89;21676;-74
2023/12/24 03:33:45;;;;;;;9.20;5.87;;;;;;;0.87;100.00;99460.17;1444676;89;21751;-73
2023/12/24 03:36:13;;;;;;;10.03;5.33;;;;;;;0.87;100.00;99445.37;1440470;89;22551;-73
2023/12/24 03:38:40;;;;;;;6.23;4.77;;;;;;;0.87;100.00;99451.88;1449708;89;21700;-74
2023/12/24 03:41:07;;;;;;;8.23;5.30;;;;;;;0.88;100.00;99467.87;1465437;89;21666;-73
2023/12/24 03:43:35;;;;;;;6.73;4.43;;;;;;;0.90;100.00;99472.98;1454092;89;22118;-74
2023/12/24 03:46:02;;;;;;;6.77;4.03;;;;;;;0.93;100.00;99481.05;1461057;89;21669;-74
2023/12/24 03:48:32;;;;;;;6.23;4.83;;;;;;;0.90;100.00;99482.92;1454309;89;21553;-74
2023/12/24 03:50:59;;;;;;;8.37;4.93;;;;;;;0.90;100.00;99494.66;1456871;89;22537;-73
2023/12/24 03:53:28;;;;;;;6.70;4.20;;;;;;;0.88;100.00;99491.31;1458331;89;21633;-73
2023/12/24 03:55:55;;;;;;;6.77;4.30;;;;;;;0.92;100.00;99495.00;1460220;89;21696;-73
2023/12/24 03:58:22;;;;;;;6.83;4.80;;;;;;;0.93;100.00;99497.98;1459143;89;22667;-74
2023/12/24 04:00:49;;;;;;;10.23;5.77;;;;;;;0.93;100.00;99491.47;1442894;89;21787;-73
2023/12/24 04:03:16;;;;;;;6.30;4.67;;;;;;;0.92;100.00;99490.62;1459447;89;22794;-73
2023/12/24 04:05:43;;;;;;;6.67;5.10;;;;;;;0.92;100.00;99490.62;1450956;89;21664;-73
2023/12/24 04:08:10;;;;;;;7.70;5.43;;;;;;;0.92;100.00;99495.00;1439203;89;21765;-73
2023/12/24 04:10:39;;;;;;;7.90;6.07;;;;;;;0.94;100.00;99482.70;1445968;89;21553;-73
2023/12/24 04:13:07;;;;;;;7.27;4.57;;;;;;;0.93;100.00;99489.70;1453981;89;22753;-73
2023/12/24 04:15:34;;;;;;;5.93;4.50;;;;;;;0.93;100.00;99495.38;1452392;89;21789;-73
2023/12/24 04:18:02;;;;;;;5.47;3.70;;;;;;;0.90;100.00;99492.05;1463413;89;21721;-73
2023/12/24 04:20:29;;;;;;;4.57;3.33;;;;;;;0.92;100.00;99482.80;1461975;89;22718;-73
2023/12/24 04:22:56;;;;;;;4.60;3.73;;;;;;;0.96;100.00;99493.38;1456879;89;21873;-74
2023/12/24 04:25:24;;;;;;;5.77;4.33;;;;;;;0.96;100.00;99493.38;1449836;89;22746;-74
2023/12/24 04:27:51;;;;;;;4.60;3.37;;;;;;;0.96;100.00;99479.05;1449066;89;21822;-73
2023/12/24 04:30:18;;;;;;;4.17;3.17;;;;;;;0.97;100.00;99489.00;1456628;89;22711;-74
2023/12/24 04:32:45;;;;;;;4.07;3.20;;;;;;;1.00;100.00;99502.63;1460599;89;21683;-74
2023/12/24 04:35:13;;;;;;;8.33;3.57;;;;;;;1.02;100.00;99488.20;1452155;89;22594;-74
2023/12/24 04:37:40;;;;;;;4.27;3.07;;;;;;;1.01;100.00;99496.50;1455120;89;21761;-73
2023/12/24 04:40:09;;;;;;;4.20;3.53;;;;;;;1.03;100.00;99495.90;1462231;89;21745;-73
2023/12/24 04:42:36;;;;;;;7.00;4.07;;;;;;;1.03;100.00;99478.13;1453181;89;21895;-73
2023/12/24 04:45:05;;;;;;;3.30;3.00;;;;;;;1.08;100.00;99492.97;1454097;89;21717;-73
2023/12/24 04:47:32;;;;;;;4.33;3.23;;;;;;;1.08;100.00;99492.97;1455251;89;21704;-74
2023/12/24 04:49:59;;;;;;;4.40;3.13;;;;;;;1.10;100.00;99490.63;1461892;89;22820;-73
2023/12/24 04:52:26;;;;;;;5.67;4.37;;;;;;;1.11;100.00;99501.88;1458062;89;21682;-74
2023/12/24 04:54:53;;;;;;;5.43;3.73;;;;;;;1.14;100.00;99491.23;1450620;89;21670;-73
2023/12/24 04:57:20;;;;;;;4.40;3.57;;;;;;;1.18;100.00;99508.33;1453669;89;21814;-73
2023/12/24 04:59:47;;;;;;;6.73;4.33;;;;;;;1.18;100.00;99508.33;1448418;89;22656;-73
2023/12/24 05:02:15;;;;;;;16.33;9.60;;;;;;;1.18;100.00;99517.45;1458145;89;21851;-74
2023/12/24 05:04:42;;;;;;;7.50;5.83;;;;;;;1.23;100.00;99517.92;1457068;89;23239;-73
2023/12/24 05:07:09;;;;;;;7.50;5.47;;;;;;;1.23;100.00;99521.84;1435902;89;21990;-73
2023/12/24 05:09:40;;;;;;;6.13;4.43;;;;;;;1.22;100.00;99514.97;1454125;89;21839;-74
2023/12/24 05:12:08;;;;;;;4.95;4.37;;;;;;;1.26;100.00;99532.05;1457910;89;21819;-74
2023/12/24 05:14:36;;;;;;;7.00;5.10;;;;;;;1.26;100.00;99534.65;1458103;89;22437;-73
2023/12/24 05:17:03;;;;;;;4.77;3.97;;;;;;;1.23;100.00;99516.62;1452450;89;21764;-73
2023/12/24 05:19:31;;;;;;;7.20;4.53;;;;;;;1.26;100.00;99515.09;1460852;89;21872;-74
2023/12/24 05:21:58;;;;;;;4.97;4.17;;;;;;;1.30;100.00;99520.95;1456018;89;21949;-73
2023/12/24 05:24:25;;;;;;;4.87;4.30;;;;;;;1.30;100.00;99520.95;1453189;89;21770;-73
2023/12/24 05:26:52;;;;;;;8.40;5.33;;;;;;;1.30;100.00;99528.29;1459557;89;22646;-73
2023/12/24 05:29:20;;;;;;;5.77;4.50;;;;;;;1.30;100.00;99528.29;1449576;89;21913;-73
2023/12/24 05:31:47;;;;;;;4.63;3.43;;;;;;;1.32;100.00;99534.23;1454818;89;22776;-73
2023/12/24 05:34:14;;;;;;;4.47;3.73;;;;;;;1.33;100.00;99531.98;1458198;89;21819;-73
2023/12/24 05:36:42;;;;;;;6.63;4.60;;;;;;;1.31;100.00;99531.73;1451269;89;21730;-73
2023/12/24 05:39:11;;;;;;;6.90;4.03;;;;;;;1.31;100.00;99531.73;1458724;89;21805;-74
2023/12/24 05:41:38;;;;;;;5.47;4.33;;;;;;;1.33;100.00;99542.88;1455911;89;22821;-74
2023/12/24 05:44:05;;;;;;;4.43;3.60;;;;;;;1.33;100.00;99542.88;1458725;89;21770;-73
2023/12/24 05:46:33;;;;;;;5.30;4.40;;;;;;;1.35;100.00;99554.02;1452469;89;21887;-73
2023/12/24 05:49:00;;;;;;;4.47;3.37;;;;;;;1.32;100.00;99548.58;1449379;89;22800;-73
2023/12/24 05:51:27;;;;;;;6.10;4.50;;;;;;;1.34;100.00;99558.40;1450835;89;21909;-73
2023/12/24 05:53:54;;;;;;;17.37;9.60;;;;;;;1.37;100.00;99559.95;1456571;89;23135;-74
2023/12/24 05:56:21;;;;;;;5.63;4.13;;;;;;;1.41;100.00;99557.95;1454471;89;22047;-73
2023/12/24 05:58:48;;;;;;;6.87;5.17;;;;;;;1.41;100.00;99557.95;1460251;89;21799;-73
2023/12/24 06:01:16;;;;;;;5.03;4.40;;;;;;;1.40;100.00;99561.52;1454526;89;21910;-74
2023/12/24 06:03:43;;;;;;;3.40;3.07;;;;;;;1.40;100.00;99561.52;1459994;89;22840;-73
2023/12/24 06:06:10;;;;;;;3.93;3.23;;;;;;;1.45;100.00;99575.06;1459071;89;21930;-73
2023/12/24 06:08:38;;;;;;;3.80;3.40;;;;;;;1.48;100.00;99572.23;1457367;89;22191;-73
2023/12/24 06:11:05;;;;;;;3.13;2.40;;;;;;;1.50;100.00;99561.23;1450520;89;21894;-73
2023/12/24 06:13:32;;;;;;;4.50;2.70;;;;;;;1.49;100.00;99547.81;1452466;89;22554;-73
2023/12/24 06:15:59;;;;;;;2.33;2.07;;;;;;;1.49;100.00;99547.81;1461063;89;22805;-73
2023/12/24 06:18:27;;;;;;;2.77;2.20;;;;;;;1.58;100.00;99552.34;1458772;89;21811;-73
2023/12/24 06:20:54;;;;;;;3.20;2.37;;;;;;;1.58;100.00;99561.03;1450128;89;22786;-73
2023/12/24 06:23:21;;;;;;;6.93;4.63;;;;;;;1.53;100.00;99550.58;1457666;89;21872;-73
2023/12/24 06:25:48;;;;;;;2.90;2.33;;;;;;;1.52;100.00;99548.41;1451210;89;21871;-73
2023/12/24 06:28:15;;;;;;;2.70;2.17;;;;;;;1.52;100.00;99548.41;1464551;89;21891;-73
2023/12/24 06:30:42;;;;;;;3.57;2.47;;;;;;;1.49;100.00;99549.11;1455123;89;21923;-73
2023/12/24 06:33:10;;;;;;;3.67;2.73;;;;;;;1.50;100.00;99549.49;1448205;89;22135;-73
2023/12/24 06:35:37;;;;;;;4.27;3.10;;;;;;;1.54;100.00;99558.75;1448545;89;22145;-73
2023/12/24 06:38:04;;;;;;;6.17;3.37;;;;;;;1.54;100.00;99558.75;1455856;89;22794;-74
2023/12/24 06:40:31;;;;;;;8.57;4.57;;;;;;;1.53;100.00;99559.22;1454936;89;21887;-73
2023/12/24 06:43:02;;;;;;;9.63;5.17;;;;;;;1.58;100.00;99572.77;1455107;89;23195;-73
2023/12/24 06:45:28;;;;;;;5.00;3.70;;;;;;;1.58;100.00;99574.08;1454842;89;21867;-74
2023/12/24 06:47:55;;;;;;;5.77;4.23;;;;;;;1.58;100.00;99574.08;1455713;89;21983;-74
2023/12/24 06:50:22;;;;;;;3.70;2.57;;;;;;;1.61;100.00;99572.98;1451501;89;21886;-74
2023/12/24 06:52:49;;;;;;;3.43;2.50;;;;;;;1.63;100.00;99571.11;1450868;89;21793;-74
2023/12/24 06:55:16;;;;;;;4.20;1.97;;;;;;;1.66;100.00;99581.32;1458059;89;21837;-73
2023/12/24 06:57:44;;;;;;;4.17;2.10;;;;;;;1.68;100.00;99596.87;1452686;89;22569;-73
2023/12/24 07:00:13;;;;;;;2.47;2.10;;;;;;;1.71;100.00;99596.17;1454196;89;22052;-74
2023/12/24 07:02:40;;;;;;;2.80;2.20;;;;;;;1.71;100.00;99596.17;1459296;89;23022;-73
2023/12/24 07:05:07;;;;;;;3.93;2.87;;;;;;;1.70;100.00;99600.22;1452148;89;22246;-73
2023/12/24 07:07:35;;;;;;;2.70;2.00;;;;;;;1.71;100.00;99600.09;1454970;89;22781;-73
2023/12/24 07:10:02;;;;;;;3.40;2.80;;;;;;;1.69;100.00;99607.18;1442856;89;22046;-73
2023/12/24 07:12:30;;;;;;;2.90;2.10;;;;;;;1.73;100.00;99618.25;1454700;89;22143;-74
2023/12/24 07:14:57;;;;;;;3.73;2.57;;;;;;;1.73;100.00;99613.03;1459667;89;22105;-74
2023/12/24 07:17:24;;;;;;;4.80;2.80;;;;;;;1.75;100.00;99630.21;1461082;89;22993;-74
2023/12/24 07:19:51;;;;;;;3.57;2.30;;;;;;;1.81;100.00;99628.94;1460645;89;22076;-73
2023/12/24 07:22:19;;;;;;;5.23;3.43;;;;;;;1.81;100.00;99628.94;1453107;89;22205;-73
2023/12/24 07:24:47;;;;;;;5.27;3.33;;;;;;;1.83;100.00;99616.62;1453644;89;22070;-73
2023/12/24 07:27:14;;;;;;;14.43;8.60;;;;;;;1.89;100.00;99615.34;1448368;89;22913;-74
2023/12/24 07:29:41;;;;;;;5.20;3.47;;;;;;;1.91;100.00;99609.55;1454997;89;22039;-73
2023/12/24 07:32:09;;;;;;;16.73;12.07;;;;;;;1.95;100.00;99624.02;1453296;89;22158;-73
2023/12/24 07:34:36;;;;;;;19.37;11.03;;;;;;;2.03;100.00;99634.73;1456500;89;22101;-75
2023/12/24 07:37:03;;;;;;;7.57;5.53;;;;;;;2.03;100.00;99634.73;1452278;89;22123;-74
2023/12/24 07:39:30;;;;;;;34.77;22.27;;;;;;;2.06;100.00;99638.43;1454555;89;22288;-73
2023/12/24 07:41:58;;;;;;;17.60;11.03;;;;;;;2.05;100.00;99639.39;1459058;89;22035;-74
2023/12/24 07:44:25;;;;;;;40.30;25.80;;;;;;;2.04;100.00;99627.27;1449248;89;22055;-73
2023/12/24 07:46:52;;;;;;;40.50;27.00;;;;;;;2.03;100.00;99620.39;1455831;89;22220;-74
2023/12/24 07:49:20;;;;;;;57.07;35.00;;;;;;;2.03;100.00;99611.25;1459884;89;22740;-73
2023/12/24 07:51:48;;;;;;;13.00;9.13;;;;;;;2.03;100.00;99619.08;1455571;89;23723;-74
2023/12/24 07:54:15;;;;;;;5.83;3.80;;;;;;;2.02;100.00;99617.43;1456352;89;22089;-73
2023/12/24 07:56:43;;;;;;;11.17;4.77;;;;;;;2.08;100.00;99617.45;1448538;89;22092;-73
2023/12/24 07:59:10;;;;;;;5.53;4.20;;;;;;;2.12;100.00;99621.01;1454525;89;22182;-74
2023/12/24 08:01:40;;;;;;;4.77;3.50;;;;;;;2.12;100.00;99626.23;1453276;89;22085;-74
2023/12/24 08:04:07;;;;;;;50.30;28.17;;;;;;;2.12;100.00;99622.79;1453833;89;22040;-73
2023/12/24 08:06:35;;;;;;;15.90;8.97;;;;;;;2.17;100.00;99630.64;1454788;89;22081;-74
2023/12/24 08:09:03;;;;;;;4.77;3.47;;;;;;;2.16;100.00;99626.38;1450841;89;23006;-73
2023/12/24 08:11:30;;;;;;;6.57;4.80;;;;;;;2.18;100.00;99628.86;1450831;89;22715;-74
2023/12/24 08:13:57;;;;;;;5.63;4.33;;;;;;;2.20;100.00;99631.72;1456364;89;22993;-74
2023/12/24 08:16:24;;;;;;;3.13;2.83;;;;;;;2.25;100.00;99627.48;1452016;89;22069;-73
2023/12/24 08:18:52;;;;;;;4.20;2.80;;;;;;;2.26;100.00;99624.73;1443484;89;22282;-74
2023/12/24 08:21:19;;;;;;;7.33;4.37;;;;;;;2.28;100.00;99624.63;1455045;89;22090;-74
2023/12/24 08:23:46;;;;;;;13.67;12.10;;;;;;;2.31;100.00;99622.27;1459496;89;23083;-74
2023/12/24 08:26:13;;;;;;;12.63;7.20;;;;;;;2.36;100.00;99624.04;1459969;89;22106;-74
2023/12/24 08:28:40;;;;;;;9.47;6.00;;;;;;;2.40;100.00;99624.19;1455213;89;23139;-74
2023/12/24 08:31:07;;;;;;;7.43;4.93;;;;;;;2.41;100.00;99629.76;1450110;89;22621;-74
2023/12/24 08:33:35;;;;;;;6.80;3.87;;;;;;;2.39;100.00;99634.28;1456142;89;22994;-75
2023/12/24 08:36:03;;;;;;;5.67;3.90;;;;;;;2.43;100.00;99644.85;1453902;89;22099;-74
2023/12/24 08:38:31;;;;;;;27.27;5.53;;;;;;;2.43;100.00;99644.85;1462210;89;21429;-73
2023/12/24 08:40:58;;;;;;;7.60;4.63;;;;;;;2.46;100.00;99648.53;1454552;89;22070;-74
2023/12/24 08:43:26;;;;;;;7.67;4.37;;;;;;;2.46;100.00;99651.98;1456776;89;22114;-74
2023/12/24 08:45:53;;;;;;;5.83;4.00;;;;;;;2.45;100.00;99652.11;1454984;89;22987;-73
2023/12/24 08:48:20;;;;;;;5.63;4.10;;;;;;;2.46;100.00;99649.84;1454340;89;22217;-73
2023/12/24 08:50:47;;;;;;;5.83;3.53;;;;;;;2.45;100.00;99645.58;1455283;89;22077;-73
2023/12/24 08:53:14;;;;;;;6.03;3.70;;;;;;;2.44;100.00;99639.97;1445154;89;22032;-73
2023/12/24 08:55:41;;;;;;;5.07;3.13;;;;;;;2.44;100.00;99643.41;1449194;89;22290;-74
2023/12/24 08:58:09;;;;;;;5.57;3.30;;;;;;;2.41;100.00;99641.03;1454978;89;22054;-74
2023/12/24 09:00:36;;;;;;;3.87;2.53;;;;;;;2.42;100.00;99640.59;1447621;89;22061;-74
2023/12/24 09:03:04;;;;;;;4.90;2.93;;;;;;;2.42;100.00;99641.89;1453689;89;22047;-74
2023/12/24 09:05:31;;;;;;;5.43;2.80;;;;;;;2.44;100.00;99638.67;1450110;89;22070;-74
2023/12/24 09:07:58;;;;;;;4.23;2.70;;;;;;;2.47;100.00;99637.98;1454842;89;23009;-74
2023/12/24 09:10:26;;;;;;;6.53;4.63;;;;;;;2.49;100.00;99645.22;1456237;89;22076;-74
2023/12/24 09:12:53;;;;;;;6.27;4.50;;;;;;;2.49;100.00;99640.47;1462273;89;23186;-73
2023/12/24 09:15:20;;;;;;;7.37;4.90;;;;;;;2.52;100.00;99638.93;1456459;89;22085;-74
2023/12/24 09:17:48;;;;;;;10.40;5.57;;;;;;;2.53;100.00;99648.42;1454334;89;22122;-73
2023/12/24 09:20:15;;;;;;;11.27;6.97;;;;;;;2.56;100.00;99646.91;1459195;89;22071;-73
2023/12/24 09:22:42;;;;;;;9.77;5.70;;;;;;;2.59;100.00;99636.23;1443670;89;22309;-73
2023/12/24 09:25:09;;;;;;;9.20;5.73;;;;;;;2.62;100.00;99627.33;1453627;89;21967;-73
2023/12/24 09:27:36;;;;;;;7.77;5.50;;;;;;;2.66;100.00;99623.05;1459497;89;22914;-74
2023/12/24 09:30:05;;;;;;;8.27;5.47;;;;;;;2.67;100.00;99618.16;1460420;89;22099;-73
2023/12/24 09:32:33;;;;;;;7.90;5.37;;;;;;;2.70;100.00;99617.96;1459043;89;22077;-74
2023/12/24 09:35:01;;;;;;;10.03;6.60;;;;;;;2.68;100.00;99612.02;1461112;89;22070;-73
2023/12/24 09:37:28;;;;;;;5.87;3.97;;;;;;;2.67;100.00;99608.19;1450561;89;22078;-74
2023/12/24 09:39:55;;;;;;;6.43;3.93;;;;;;;2.68;100.00;99607.27;1459251;89;22129;-74
2023/12/24 09:42:23;;;;;;;6.67;3.63;;;;;;;2.68;100.00;99607.27;1454481;89;22266;-73
2023/12/24 09:44:50;;;;;;;4.40;2.63;;;;;;;2.69;100.00;99611.05;1458394;89;22004;-73
2023/12/24 09:47:17;;;;;;;7.70;3.70;;;;;;;2.69;100.00;99611.05;1456430;89;22004;-73
2023/12/24 09:49:45;;;;;;;8.00;4.73;;;;;;;2.72;100.00;99609.98;1455745;89;23060;-73
2023/12/24 09:52:14;;;;;;;20.80;12.77;;;;;;;2.74;100.00;99613.33;1452245;89;21348;-73
2023/12/24 09:54:43;;;;;;;12.10;8.27;;;;;;;2.74;100.00;99613.33;1454302;89;22553;-73
2023/12/24 09:57:10;;;;;;;7.07;5.43;;;;;;;2.77;100.00;99599.20;1460522;89;21398;-73
2023/12/24 09:59:37;;;;;;;4.53;2.93;;;;;;;2.78;100.00;99603.47;1451125;89;22151;-74
2023/12/24 10:02:05;;;;;;;5.10;3.10;;;;;;;2.83;100.00;99603.47;1454354;89;22309;-73
2023/12/24 10:04:32;;;;;;;7.10;4.27;;;;;;;2.85;100.00;99598.10;1449367;89;22114;-73
2023/12/24 10:06:59;;;;;;;5.47;2.73;;;;;;;2.87;100.00;99593.59;1453503;89;21357;-73
2023/12/24 10:09:49;;;;;;;5.53;3.40;;;;;;;2.90;100.00;99593.36;1450759;89;22971;-73
2023/12/24 10:12:18;;;;;;;7.23;4.60;;;;;;;2.91;100.00;99596.34;1447810;89;21430;-75
2023/12/24 10:14:58;;;;;;;14.90;6.40;;;;;;;2.98;100.00;99598.00;1452221;89;21290;-74
2023/12/24 10:17:33;;;;;;;6.47;4.43;;;;;;;2.99;100.00;99604.88;1455930;89;21481;-74
2023/12/24 10:20:05;;;;;;;7.07;4.60;;;;;;;2.99;100.00;99604.88;1442495;89;21318;-75
2023/12/24 10:22:33;;;;;;;9.50;5.40;;;;;;;2.96;100.00;99579.80;1461590;89;21525;-74
2023/12/24 10:25:03;;;;;;;5.60;3.73;;;;;;;2.96;100.00;99579.80;1447897;89;21377;-75
2023/12/24 10:27:30;;;;;;;8.40;4.47;;;;;;;3.01;100.00;99576.37;1451124;89;21628;-75
2023/12/24 10:30:10;;;;;;;7.17;3.93;;;;;;;3.02;100.00;99574.13;1457806;89;21363;-75
2023/12/24 10:32:40;;;;;;;5.80;4.27;;;;;;;3.03;100.00;99571.86;1456555;89;21516;-74
2023/12/24 10:35:08;;;;;;;6.83;5.00;;;;;;;3.01;100.00;99561.98;1450964;89;21407;-74
2023/12/24 10:37:35;;;;;;;7.63;5.17;;;;;;;3.01;100.00;99561.98;1450858;89;21436;-75
2023/12/24 10:40:10;;;;;;;8.13;5.07;;;;;;;3.08;100.00;99571.03;1449810;89;21355;-75
2023/12/24 10:42:39;;;;;;;14.27;5.60;;;;;;;3.09;100.00;99562.22;1467447;89;21369;-74
2023/12/24 10:45:08;;;;;;;7.60;4.90;;;;;;;3.14;100.00;99553.55;1465570;89;21566;-74
2023/12/24 10:47:38;;;;;;;9.00;6.37;;;;;;;3.14;100.00;99553.55;1453987;89;22101;-75
2023/12/24 10:50:06;;;;;;;9.93;6.10;;;;;;;3.23;100.00;99556.39;1454456;89;21370;-74
2023/12/24 10:52:34;;;;;;;13.03;5.93;;;;;;;3.26;100.00;99554.35;1446121;89;21333;-74
2023/12/24 10:55:03;;;;;;;8.70;6.17;;;;;;;3.32;100.00;99556.48;1443906;89;21356;-74
2023/12/24 10:57:52;;;;;;;8.47;6.03;;;;;;;3.37;100.00;99548.27;1458254;89;21355;-74
2023/12/24 11:00:21;;;;;;;11.77;5.73;;;;;;;3.40;100.00;99529.72;1445799;89;21628;-74
2023/12/24 11:02:49;;;;;;;6.90;5.20;;;;;;;3.45;100.00;99522.78;1454378;89;21385;-74
2023/12/24 11:05:46;;;;;;;8.73;5.43;;;;;;;3.50;100.00;99525.38;1454249;89;21400;-75
2023/12/24 11:08:28;;;;;;;8.90;5.43;;;;;;;3.55;100.00;99520.61;1456291;89;21518;-74
2023/12/24 11:11:06;;;;;;;7.53;4.80;;;;;;;3.61;100.00;99524.03;1458485;89;21540;-74
2023/12/24 11:13:41;;;;;;;9.43;5.07;;;;;;;3.68;100.00;99527.45;1449015;89;21506;-74
2023/12/24 11:16:11;;;;;;;9.97;5.70;;;;;;;3.71;100.00;99530.67;1456684;89;21443;-75
2023/12/24 11:18:49;;;;;;;9.63;4.87;;;;;;;3.78;100.00;99525.76;1454361;89;22489;-74
2023/12/24 11:21:19;;;;;;;6.73;4.77;;;;;;;3.81;100.00;99525.02;1452268;89;22250;-74
2023/12/24 11:24:12;;;;;;;14.98;6.65;;;;;;;3.84;100.00;99516.09;1462384;89;22546;-75
2023/12/24 11:26:51;;;;;;;15.60;6.67;;;;;;;3.87;100.00;99501.44;1453927;89;21459;-74
2023/12/24 11:29:49;;;;;;;9.23;4.90;;;;;;;3.93;100.00;99497.48;1464408;89;21326;-74
2023/12/24 11:32:30;;;;;;;6.07;4.33;;;;;;;3.99;100.00;99497.78;1459011;89;21385;-74
2023/12/24 11:34:58;;;;;;;6.12;4.53;;;;;;;4.09;100.00;99493.11;1453349;89;22353;-74
2023/12/24 11:37:30;;;;;;;5.60;4.23;;;;;;;4.17;100.00;99496.75;1454703;89;21517;-74